createdAt,value
2023-11-03T00:03:06.029Z,79.38
2023-11-03T00:07:04.294Z,78.94
2023-11-03T00:11:04.936Z,78.34
2023-11-03T00:15:03.244Z,78.60
2023-11-03T00:19:04.553Z,77.16
2023-11-03T00:23:04.752Z,76.60
2023-11-03T00:31:04.407Z,76.99
2023-11-03T00:35:05.627Z,77.61
2023-11-03T00:39:02.950Z,75.75
2023-11-03T00:43:03.306Z,76.66
2023-11-03T00:47:03.383Z,76.10
2023-11-03T00:51:04.834Z,76.19
2023-11-03T00:55:06.774Z,75.04
2023-11-03T00:59:03.013Z,75.42
2023-11-03T01:03:02.982Z,74.50
2023-11-03T01:07:03.788Z,75.96
2023-11-03T01:11:03.177Z,75.56
2023-11-03T01:15:05.648Z,75.04
2023-11-03T01:19:04.361Z,74.99
2023-11-03T01:23:03.626Z,74.66
2023-11-03T01:31:04.301Z,75.07
2023-11-03T01:35:03.462Z,74.52
2023-11-03T01:39:05.527Z,75.23
2023-11-03T01:43:03.273Z,74.49
2023-11-03T01:47:03.544Z,74.74
2023-11-03T01:51:04.129Z,74.45
2023-11-03T01:55:03.393Z,75.21
2023-11-03T01:59:04.681Z,74.71
2023-11-03T02:03:03.287Z,75.14
2023-11-03T02:07:03.023Z,75.01
2023-11-03T02:11:03.397Z,75.24
2023-11-03T02:15:05.587Z,75.64
2023-11-03T02:19:04.129Z,75.67
2023-11-03T02:23:04.109Z,75.97
2023-11-03T02:27:03.127Z,76.01
2023-11-03T02:31:03.210Z,75.64
2023-11-03T02:35:03.362Z,75.66
2023-11-03T02:39:03.362Z,75.65
2023-11-03T02:43:03.227Z,75.79
2023-11-03T02:47:04.029Z,75.77
2023-11-03T02:51:03.520Z,76.32
2023-11-03T02:55:04.333Z,76.62
2023-11-03T03:03:04.521Z,76.79
2023-11-03T03:11:03.524Z,77.56
2023-11-03T03:23:03.422Z,78.49
2023-11-03T03:27:03.156Z,78.52
2023-11-03T03:31:03.561Z,78.68
2023-11-03T03:35:03.520Z,79.16
2023-11-03T03:39:03.831Z,79.78
2023-11-03T03:43:03.223Z,80.03
2023-11-03T03:47:03.620Z,80.03
2023-11-03T03:51:03.538Z,80.62
2023-11-03T03:55:38.434Z,80.70
2023-11-03T03:59:03.280Z,80.80
2023-11-03T04:03:03.586Z,81.07
2023-11-03T04:07:03.253Z,81.00
2023-11-03T04:11:03.528Z,81.28
2023-11-03T04:15:03.639Z,81.16
2023-11-03T04:19:04.031Z,81.48
2023-11-03T04:23:03.319Z,81.31
2023-11-03T04:27:03.793Z,81.39
2023-11-03T04:31:03.509Z,81.53
2023-11-03T04:35:03.872Z,82.08
2023-11-03T04:39:03.435Z,82.05
2023-11-03T04:43:03.539Z,81.77
2023-11-03T04:47:03.617Z,81.30
2023-11-03T04:51:03.749Z,81.56
2023-11-03T04:55:03.604Z,81.54
2023-11-03T04:59:05.480Z,81.20
2023-11-03T05:03:03.650Z,81.15
2023-11-03T05:07:04.610Z,81.11
2023-11-03T05:11:03.636Z,80.54
2023-11-03T05:15:05.648Z,80.49
2023-11-03T05:19:03.521Z,80.09
2023-11-03T05:23:03.588Z,80.00
2023-11-03T05:27:03.433Z,79.96
2023-11-03T05:31:05.461Z,79.98
2023-11-03T05:35:05.691Z,80.26
2023-11-03T05:39:03.918Z,80.11
2023-11-03T05:43:03.516Z,79.88
2023-11-03T05:47:04.430Z,79.58
2023-11-03T05:51:04.233Z,79.93
2023-11-03T05:55:05.251Z,80.19
2023-11-03T05:59:04.583Z,80.22
2023-11-03T06:03:04.314Z,79.74
2023-11-03T06:07:06.632Z,80.17
2023-11-03T06:11:03.912Z,79.79
2023-11-03T06:15:04.765Z,80.03
2023-11-03T06:23:03.839Z,80.11
2023-11-03T06:31:04.154Z,80.40
2023-11-03T06:35:04.030Z,79.98
2023-11-03T06:39:03.801Z,80.20
2023-11-03T06:43:05.903Z,80.63
2023-11-03T06:47:04.019Z,80.32
2023-11-03T06:51:09.305Z,80.37
2023-11-03T06:55:04.068Z,80.42
2023-11-03T06:59:03.996Z,80.04
2023-11-03T07:03:03.875Z,80.08
2023-11-03T07:11:04.107Z,80.34
2023-11-03T07:15:04.430Z,80.20
2023-11-03T07:19:04.033Z,80.22
2023-11-03T07:23:05.074Z,80.37
2023-11-03T07:27:04.349Z,80.24
2023-11-03T07:35:06.516Z,80.33
2023-11-03T07:39:05.990Z,80.35
2023-11-03T07:43:05.750Z,80.54
2023-11-03T07:47:07.129Z,80.82
2023-11-03T07:51:04.748Z,80.88
2023-11-03T07:55:05.835Z,80.94
2023-11-03T08:03:06.148Z,81.51
2023-11-03T08:07:04.355Z,81.50
2023-11-03T08:15:13.055Z,81.96
2023-11-03T08:23:04.266Z,81.80
2023-11-03T08:27:57.906Z,81.32
2023-11-03T08:31:04.187Z,82.05
2023-11-03T08:35:05.704Z,81.82
2023-11-03T08:39:16.820Z,81.41
2023-11-03T08:43:04.631Z,81.24
2023-11-03T08:47:04.065Z,81.46
2023-11-03T08:51:04.088Z,80.94
2023-11-03T08:55:06.942Z,80.27
2023-11-03T08:59:04.227Z,80.36
2023-11-03T09:03:04.206Z,80.00
2023-11-03T09:07:04.328Z,80.22
2023-11-03T09:11:04.291Z,79.55
2023-11-03T09:15:05.825Z,79.60
2023-11-03T09:19:04.399Z,79.64
2023-11-03T09:23:04.092Z,79.71
2023-11-03T09:27:09.127Z,79.94
2023-11-03T09:35:04.851Z,80.50
2023-11-03T09:39:04.931Z,80.02
2023-11-03T09:43:04.421Z,80.12
2023-11-03T09:47:05.742Z,79.98
2023-11-03T09:55:10.923Z,80.69
2023-11-03T09:59:07.379Z,80.80
2023-11-03T10:03:05.067Z,81.33
2023-11-03T10:07:05.535Z,81.24
2023-11-03T10:11:05.783Z,81.72
2023-11-03T10:15:06.579Z,82.10
2023-11-03T10:19:04.837Z,81.62
2023-11-03T10:23:04.874Z,81.83
2023-11-03T10:27:05.636Z,81.43
2023-11-03T10:31:04.935Z,81.09
2023-11-03T10:35:05.659Z,80.86
2023-11-03T10:39:05.733Z,81.51
2023-11-03T10:43:07.974Z,81.66
2023-11-03T10:47:06.285Z,81.50
2023-11-03T10:51:10.884Z,82.28
2023-11-03T10:55:10.301Z,81.28
2023-11-03T10:59:06.424Z,81.32
2023-11-03T11:03:12.488Z,81.87
2023-11-03T11:07:09.958Z,81.53
2023-11-03T11:11:05.180Z,81.52
2023-11-03T11:15:05.560Z,81.68
2023-11-03T11:19:10.562Z,82.02
2023-11-03T11:23:05.845Z,81.80
2023-11-03T11:27:12.164Z,82.25
2023-11-03T11:31:26.134Z,82.46
2023-11-03T11:35:08.569Z,82.33
2023-11-03T11:39:15.889Z,82.26
2023-11-03T11:43:15.061Z,82.31
2023-11-03T11:47:05.728Z,82.09
2023-11-03T11:51:07.898Z,81.34
2023-11-03T11:55:05.909Z,82.62
2023-11-03T11:59:06.458Z,81.46
2023-11-03T12:03:06.948Z,81.15
2023-11-03T12:07:05.434Z,81.43
2023-11-03T12:11:06.773Z,81.46
2023-11-03T12:15:05.532Z,81.79
2023-11-03T12:19:05.500Z,81.77
2023-11-03T12:23:04.651Z,81.43
2023-11-03T12:27:04.832Z,81.57
2023-11-03T12:31:04.846Z,81.06
2023-11-03T12:35:08.004Z,79.42
2023-11-03T12:39:06.293Z,79.37
2023-11-03T12:43:09.707Z,79.05
2023-11-03T12:47:04.862Z,78.22
2023-11-03T12:51:04.972Z,77.64
2023-11-03T12:55:06.066Z,77.69
2023-11-03T12:59:04.745Z,77.60
2023-11-03T13:03:05.421Z,77.93
2023-11-03T13:07:05.395Z,76.38
2023-11-03T13:12:20.364Z,77.04
2023-11-03T13:15:06.074Z,76.56
2023-11-03T13:23:07.292Z,76.47
2023-11-03T13:31:05.028Z,75.32
2023-11-03T13:39:26.802Z,75.27
2023-11-03T13:43:06.001Z,76.00
2023-11-03T13:47:05.339Z,75.56
2023-11-03T13:51:05.253Z,75.70
2023-11-03T13:55:05.823Z,75.69
2023-11-03T13:59:04.956Z,75.34
2023-11-03T14:03:05.508Z,76.12
2023-11-03T14:07:04.919Z,76.29
2023-11-03T14:11:15.187Z,76.37
2023-11-03T14:13:49.183Z,76.37
2023-11-03T14:15:07.161Z,75.79
2023-11-03T14:20:09.240Z,76.34
2023-11-03T14:23:04.925Z,76.24
2023-11-03T14:27:06.467Z,77.26
2023-11-03T14:35:10.505Z,77.29
2023-11-03T14:39:04.986Z,77.72
2023-11-03T14:43:05.180Z,76.68
2023-11-03T14:47:05.517Z,75.99
2023-11-03T14:51:05.264Z,75.84
2023-11-03T14:55:06.263Z,76.06
2023-11-03T14:59:05.100Z,76.73
2023-11-03T15:03:07.506Z,77.29
2023-11-03T15:07:06.745Z,76.74
2023-11-03T15:11:05.116Z,77.43
2023-11-03T15:15:06.048Z,77.60
2023-11-03T15:19:06.686Z,77.48
2023-11-03T15:23:05.378Z,78.06
2023-11-03T15:27:05.144Z,78.24
2023-11-03T15:31:07.223Z,78.53
2023-11-03T15:35:05.908Z,79.22
2023-11-03T15:39:15.875Z,78.67
2023-11-03T15:43:05.165Z,79.02
2023-11-03T15:47:06.092Z,79.20
2023-11-03T15:51:43.240Z,79.83
2023-11-03T15:55:07.682Z,79.53
2023-11-03T15:59:05.324Z,78.76
2023-11-03T16:03:05.378Z,77.77
2023-11-03T16:07:21.914Z,77.51
2023-11-03T16:15:06.540Z,77.25
2023-11-03T16:19:05.512Z,77.05
2023-11-03T16:23:05.549Z,77.26
2023-11-03T16:27:08.115Z,77.21
2023-11-03T16:35:06.433Z,77.06
2023-11-03T16:39:10.133Z,77.09
2023-11-03T16:43:07.754Z,77.17
2023-11-03T16:47:07.823Z,76.58
2023-11-03T16:51:06.376Z,75.26
2023-11-03T16:55:07.198Z,75.72
2023-11-03T16:59:07.111Z,76.93
2023-11-03T17:03:05.711Z,77.42
2023-11-03T17:07:08.030Z,78.14
2023-11-03T17:11:07.373Z,77.77
2023-11-03T17:15:07.875Z,77.83
2023-11-03T17:19:07.926Z,77.52
2023-11-03T17:23:07.201Z,77.30
2023-11-03T17:27:06.496Z,77.49
2023-11-03T17:31:06.970Z,77.18
2023-11-03T17:35:06.505Z,77.44
2023-11-03T17:39:09.338Z,77.41
2023-11-03T17:43:05.604Z,77.35
2023-11-03T17:47:05.651Z,77.24
2023-11-03T17:51:05.545Z,77.00
2023-11-03T17:55:09.080Z,76.67
2023-11-03T17:59:05.509Z,76.95
2023-11-03T18:03:06.243Z,76.78
2023-11-03T18:07:08.311Z,76.58
2023-11-03T18:11:05.874Z,76.49
2023-11-03T18:15:07.583Z,76.53
2023-11-03T18:19:05.865Z,76.55
2023-11-03T18:23:05.567Z,76.47
2023-11-03T18:27:05.747Z,76.42
2023-11-03T18:31:05.712Z,76.65
2023-11-03T18:35:09.045Z,76.21
2023-11-03T18:39:05.609Z,76.59
2023-11-03T18:43:06.200Z,75.86
2023-11-03T18:47:05.813Z,75.62
2023-11-03T18:51:25.580Z,75.96
2023-11-03T18:56:04.916Z,76.53
2023-11-03T19:00:21.990Z,76.31
2023-11-03T19:04:41.313Z,75.91
2023-11-03T19:07:32.704Z,75.98
2023-11-03T19:11:06.200Z,76.00
2023-11-03T19:15:08.633Z,76.33
2023-11-03T19:19:06.078Z,76.47
2023-11-03T19:23:06.105Z,76.98
2023-11-03T19:27:05.960Z,77.39
2023-11-03T19:31:06.356Z,77.50
2023-11-03T19:35:06.377Z,77.35
2023-11-03T19:39:06.597Z,77.67
2023-11-03T19:43:06.212Z,77.54
2023-11-03T19:47:06.285Z,77.61
2023-11-03T19:51:06.081Z,77.40
2023-11-03T19:55:06.518Z,77.62
2023-11-03T19:59:06.114Z,77.11
2023-11-03T20:03:06.272Z,76.78
2023-11-03T20:07:06.687Z,76.65
2023-11-03T20:11:06.442Z,76.30
2023-11-03T20:15:08.973Z,76.27
2023-11-03T20:19:07.931Z,76.02
2023-11-03T20:23:06.835Z,75.94
2023-11-03T20:27:06.704Z,76.09
2023-11-03T20:31:06.183Z,76.16
2023-11-03T20:35:07.361Z,76.25
2023-11-03T20:39:10.754Z,76.42
2023-11-03T20:43:06.766Z,76.49
2023-11-03T20:47:06.589Z,76.28
2023-11-03T20:51:06.934Z,76.19
2023-11-03T20:55:06.783Z,75.99
2023-11-03T20:59:07.023Z,76.11
2023-11-03T21:03:06.164Z,76.41
2023-11-03T21:07:06.530Z,76.62
2023-11-03T21:11:06.250Z,76.90
2023-11-03T21:15:08.222Z,76.98
2023-11-03T21:19:06.377Z,77.26
2023-11-03T21:23:06.255Z,77.25
2023-11-03T21:27:06.127Z,77.25
2023-11-03T21:31:06.190Z,77.13
2023-11-03T21:35:08.935Z,77.17
2023-11-03T21:43:06.325Z,76.96
2023-11-03T21:47:06.845Z,77.01
2023-11-03T21:51:06.390Z,76.91
2023-11-03T21:55:06.819Z,76.88
2023-11-03T21:59:06.645Z,76.59
2023-11-03T22:07:09.143Z,76.98
2023-11-03T22:11:06.230Z,77.09
2023-11-03T22:15:06.928Z,77.52
2023-11-03T22:19:06.406Z,77.43
2023-11-03T22:23:06.354Z,77.86
2023-11-03T22:27:08.174Z,77.93
2023-11-03T22:31:06.529Z,77.69
2023-11-03T22:39:06.421Z,78.25
2023-11-03T22:43:06.508Z,79.07
2023-11-03T22:47:06.664Z,79.66
2023-11-03T22:51:07.785Z,79.49
2023-11-03T22:55:09.281Z,80.19
2023-11-03T22:59:06.546Z,80.32
2023-11-03T23:03:07.165Z,80.02
2023-11-03T23:07:06.736Z,80.14
2023-11-03T23:11:07.865Z,80.02
2023-11-03T23:15:08.497Z,80.31
2023-11-03T23:19:07.344Z,80.32
2023-11-03T23:23:06.424Z,80.46
2023-11-03T23:31:07.133Z,80.42
2023-11-03T23:35:07.412Z,80.16
2023-11-03T23:39:07.799Z,79.78
2023-11-03T23:43:06.508Z,79.62
2023-11-03T23:47:06.774Z,79.14
2023-11-03T23:51:06.734Z,79.61
2023-11-03T23:55:07.352Z,79.82
2023-11-03T23:59:07.466Z,79.87
